Terminal Aerodrome Forecast
Issued by NWS Sioux Falls, SD

Home | Current Version | Previous Version | Text Only | Print | Product List | Glossary Off
Versions: 1 2 3 4 5 6 7 8 9 10 11 12 13 14 15 16 17 18 19 20 21 22 23 24

000
FTUS43 KFSD 252322
TAFHON
TAF
KHON 252322Z 2600/2624 32010KT P6SM OVC030
     FM260200 32006KT P6SM BKN020
     FM261000 36005KT P6SM BKN015
      TEMPO 2611/2614 5SM BR
     FM261600 06009KT P6SM SCT020 BKN035
     FM261900 07012KT P6SM SCT035 BKN080=

USA.gov is the U.S. government's official web portal to all federal, state and local government web resources and services.